Weather History for Mosby, MO

Change the Weather History Date:

Monday, January 21, 2013

  Actual Average (KMKC) Record (KMKC)
Temperature  
Mean Temperature 18 °F -  
Max Temperature 21 °F 37 °F 66 °F (1997)
Min Temperature 15 °F 21 °F 5 °F (2014)
Degree Days  
Heating Degree Days 47    
Moisture  
Dew Point 5 °F    
Average Humidity 59    
Maximum Humidity 86    
Minimum Humidity 33    
Precipitation  
Precipitation 0.00 in - - ()
Sea Level Pressure  
Sea Level Pressure 30.41 in    
Wind  
Wind Speed 7 mph (NW)    
Max Wind Speed 16 mph    
Max Gust Speed 20 mph    
Visibility 10 miles    
Events      
Averages and records for this station are not official NWS values.
T = Trace of Precipitation, MM = Missing Value Source: NWS Daily Summary

Daily Weather History Graph

Daily Weather History Graph

Search for Another Location

Airport:

Trip Planner

Search our weather history database for the weather conditions in past years. The results will help you decide how hot, cold, wet, or windy it might be!

Date:

Astronomy

Jan. 21, 2013 Rise Set
Actual Time 7:32 AM CST 5:25 PM CST
Civil Twilight 7:03 AM CST 5:54 PM CST
Nautical Twilight 6:30 AM CST 6:27 PM CST
Astronomical Twilight 5:58 AM CST 6:58 PM CST
Moon 1:05 PM CST (1/21) 3:01 AM CST (1/21)
Length of Visible Light 10h 50m
Length of Day
9h 52m
Waxing Gibbous, 75% of the Moon is Illuminated
Jan 21
Waxing Gibbous
Jan 26
Full
Feb 3
Last Quarter
Feb 10
New
Feb 17
First Quarter

Hourly Weather History & Observations

Time (CST) Temp. Windchill Dew Point Humidity Pressure Visibility Wind Dir Wind Speed Gust Speed Precip Events Conditions
12:15 AM 21.2 °F 10.1 °F 12.2 °F 68% 30.41 in 10.0 mi NNW 10.4 mph 17.3 mph N/A   Clear
12:35 AM 19.4 °F 7.9 °F 12.2 °F 74% 30.41 in 10.0 mi NNW 10.4 mph 16.1 mph N/A   Clear
12:55 AM 19.4 °F 7.9 °F 12.2 °F 74% 30.40 in 10.0 mi NNW 10.4 mph - N/A   Clear
1:15 AM 19.4 °F 8.6 °F 12.2 °F 74% 30.40 in 10.0 mi NNW 9.2 mph - N/A   Clear
1:35 AM 19.4 °F 8.6 °F 12.2 °F 74% 30.41 in 10.0 mi NNW 9.2 mph - N/A   Clear
1:55 AM 19.4 °F 12.8 °F 12.2 °F 74% 30.42 in 10.0 mi NNW 4.6 mph - N/A   Clear
2:15 AM 19.4 °F 12.8 °F 12.2 °F 74% 30.41 in 10.0 mi NNW 4.6 mph - N/A   Clear
2:35 AM 17.6 °F - 12.2 °F 79% 30.41 in 10.0 mi Calm Calm - N/A   Clear
2:55 AM 17.6 °F 12.3 °F 12.2 °F 79% 30.41 in 10.0 mi West 3.5 mph - N/A   Clear
3:15 AM 17.6 °F 12.3 °F 12.2 °F 79% 30.41 in 10.0 mi WSW 3.5 mph - N/A   Clear
3:35 AM 17.6 °F - 12.2 °F 79% 30.41 in 10.0 mi Calm Calm - N/A   Clear
3:55 AM 17.6 °F 12.3 °F 12.2 °F 79% 30.41 in 10.0 mi WNW 3.5 mph - N/A   Clear
4:15 AM 17.6 °F - 12.2 °F 79% 30.40 in 10.0 mi Calm Calm - N/A   Clear
4:35 AM 17.6 °F - 12.2 °F 79% 30.39 in 10.0 mi Calm Calm - N/A   Unknown
4:55 AM 15.8 °F - 12.2 °F 86% 30.40 in 10.0 mi Calm Calm - N/A   Clear
5:15 AM 15.8 °F - 12.2 °F 86% 30.40 in 10.0 mi Calm Calm - N/A   Clear
5:35 AM 15.8 °F 10.2 °F 12.2 °F 86% 30.40 in 10.0 mi WNW 3.5 mph - N/A   Clear
5:55 AM 15.8 °F 10.2 °F 12.2 °F 86% 30.40 in 10.0 mi WNW 3.5 mph - N/A   Clear
6:15 AM 17.6 °F 10.7 °F 10.4 °F 73% 30.40 in 10.0 mi NW 4.6 mph - N/A   Clear
6:35 AM 17.6 °F 9.3 °F 10.4 °F 73% 30.41 in 10.0 mi NW 5.8 mph - N/A   Clear
7:15 AM 15.8 °F 6.1 °F 10.4 °F 79% 30.41 in 10.0 mi NW 6.9 mph - N/A   Clear
7:35 AM 17.6 °F 8.2 °F 10.4 °F 73% 30.41 in 10.0 mi NW 6.9 mph - N/A   Scattered Clouds
7:55 AM 17.6 °F 9.3 °F 10.4 °F 73% 30.41 in 10.0 mi WNW 5.8 mph - N/A   Scattered Clouds
8:15 AM 17.6 °F 7.3 °F 12.2 °F 79% 30.41 in 10.0 mi NW 8.1 mph - N/A   Mostly Cloudy
8:35 AM 17.6 °F 8.2 °F 12.2 °F 79% 30.41 in 10.0 mi NW 6.9 mph - N/A   Overcast
8:55 AM 17.6 °F 6.4 °F 12.2 °F 79% 30.42 in 10.0 mi NW 9.2 mph 17.3 mph N/A   Overcast
9:15 AM 19.4 °F 5.0 °F 10.4 °F 68% 30.43 in 10.0 mi North 16.1 mph - N/A   Overcast
9:35 AM 19.4 °F 8.6 °F 6.8 °F 58% 30.44 in 10.0 mi NNW 9.2 mph 18.4 mph N/A   Overcast
9:55 AM 19.4 °F 7.9 °F 5.0 °F 54% 30.44 in 10.0 mi NNW 10.4 mph 18.4 mph N/A   Overcast
10:15 AM 19.4 °F 6.6 °F 5.0 °F 54% 30.44 in 10.0 mi NW 12.7 mph 17.3 mph N/A   Overcast
10:35 AM 19.4 °F 7.2 °F 5.0 °F 54% 30.45 in 10.0 mi NNW 11.5 mph - N/A   Overcast
10:55 AM 19.4 °F 7.2 °F 3.2 °F 49% 30.45 in 10.0 mi NW 11.5 mph - N/A   Overcast
11:15 AM 19.4 °F 6.6 °F 3.2 °F 49% 30.45 in 10.0 mi NNW 12.7 mph - N/A   Scattered Clouds
11:35 AM 19.4 °F 6.6 °F 1.4 °F 46% 30.44 in 10.0 mi WNW 12.7 mph - N/A   Mostly Cloudy
11:55 AM 19.4 °F 7.2 °F 3.2 °F 49% 30.44 in 10.0 mi WNW 11.5 mph - N/A   Scattered Clouds
12:15 PM 19.4 °F 7.2 °F -0.4 °F 42% 30.43 in 10.0 mi NW 11.5 mph 19.6 mph N/A   Unknown
12:35 PM 19.4 °F 7.2 °F -0.4 °F 42% 30.42 in 10.0 mi NW 11.5 mph - N/A   Clear
12:55 PM 19.4 °F 5.5 °F -2.2 °F 39% 30.42 in 10.0 mi North 15.0 mph - N/A   Scattered Clouds
1:15 PM 19.4 °F 7.9 °F -4.0 °F 36% 30.41 in 10.0 mi NNW 10.4 mph - N/A   Scattered Clouds
1:35 PM 19.4 °F 6.6 °F -5.8 °F 33% 30.42 in 10.0 mi NW 12.7 mph - N/A   Clear
1:55 PM 17.6 °F 6.4 °F -5.8 °F 35% 30.42 in 10.0 mi NW 9.2 mph - N/A   Clear
2:15 PM 19.4 °F 8.6 °F -5.8 °F 33% 30.42 in 10.0 mi NNW 9.2 mph - N/A   Clear
2:35 PM 19.4 °F 7.9 °F -5.8 °F 33% 30.41 in 10.0 mi NNW 10.4 mph - N/A   Clear
2:55 PM 17.6 °F 5.7 °F -5.8 °F 35% 30.42 in 10.0 mi NNW 10.4 mph - N/A   Scattered Clouds
3:15 PM 17.6 °F 10.7 °F -4.0 °F 38% 30.40 in 10.0 mi NNW 4.6 mph - N/A   Mostly Cloudy
3:35 PM 17.6 °F 7.3 °F -4.0 °F 38% 30.40 in 10.0 mi North 8.1 mph - N/A   Scattered Clouds
3:55 PM 17.6 °F 7.3 °F -2.2 °F 42% 30.39 in 10.0 mi NNW 8.1 mph - N/A   Scattered Clouds
4:15 PM 17.6 °F 7.3 °F -0.4 °F 45% 30.40 in 10.0 mi North 8.1 mph - N/A   Clear
4:35 PM 17.6 °F 9.3 °F -0.4 °F 45% 30.40 in 10.0 mi NNW 5.8 mph - N/A   Scattered Clouds
4:55 PM 17.6 °F 8.2 °F 1.4 °F 49% 30.39 in 10.0 mi NNW 6.9 mph - N/A   Overcast
5:15 PM 17.6 °F 8.2 °F 1.4 °F 49% 30.39 in 10.0 mi NNW 6.9 mph - N/A   Overcast
5:35 PM 17.6 °F 9.3 °F 1.4 °F 49% 30.39 in 10.0 mi North 5.8 mph - N/A   Overcast
5:55 PM 17.6 °F 10.7 °F 1.4 °F 49% 30.39 in 10.0 mi NW 4.6 mph - N/A   Overcast
6:15 PM 17.6 °F - 1.4 °F 49% 30.39 in 10.0 mi Calm Calm - N/A   Overcast
6:35 PM 17.6 °F 12.3 °F 3.2 °F 53% 30.39 in 10.0 mi WNW 3.5 mph - N/A   Overcast
6:55 PM 17.6 °F 9.3 °F 3.2 °F 53% 30.38 in 10.0 mi NW 5.8 mph - N/A   Overcast
7:15 PM 17.6 °F 10.7 °F 3.2 °F 53% 30.39 in 10.0 mi NW 4.6 mph - N/A   Overcast
7:35 PM 17.6 °F 7.3 °F 3.2 °F 53% 30.39 in 10.0 mi North 8.1 mph - N/A   Overcast
8:15 PM 17.6 °F 8.2 °F 3.2 °F 53% 30.39 in 10.0 mi North 6.9 mph - N/A   Overcast
8:35 PM 17.6 °F 10.7 °F 3.2 °F 53% 30.39 in 10.0 mi NW 4.6 mph - N/A   Unknown
8:55 PM 17.6 °F 10.7 °F 3.2 °F 53% 30.39 in 10.0 mi NW 4.6 mph - N/A   Overcast
9:15 PM 17.6 °F 10.7 °F 3.2 °F 53% 30.39 in 10.0 mi NNW 4.6 mph - N/A   Overcast
9:35 PM 17.6 °F 8.2 °F 3.2 °F 53% 30.39 in 10.0 mi North 6.9 mph - N/A   Overcast
9:55 PM 17.6 °F 10.7 °F 3.2 °F 53% 30.40 in 10.0 mi NNW 4.6 mph - N/A   Overcast
10:15 PM 17.6 °F 8.2 °F 3.2 °F 53% 30.40 in 10.0 mi North 6.9 mph - N/A   Overcast
10:35 PM 17.6 °F 9.3 °F 3.2 °F 53% 30.40 in 10.0 mi North 5.8 mph - N/A   Overcast
11:15 PM 17.6 °F 10.7 °F 5.0 °F 58% 30.40 in 10.0 mi NW 4.6 mph - N/A   Overcast
11:35 PM 17.6 °F 8.2 °F 5.0 °F 58% 30.39 in 10.0 mi North 6.9 mph - N/A   Overcast